Time;durP1;ratioP1;P1;durP2;ratioP2;P2;SDS_P1;SDS_P2;PMS_P1;PMS_P2;Temp;Humidity;BMP_temperature;BMP_pressure;BME280_temperature;BME280_humidity;BME280_pressure;Samples;Min_cycle;Max_cycle;Signal;HPM_P1;HPM_P2
2021/12/10 00:00:01;;;;;;;37.97;27.45;;;;;;;;;;5013900;28;20380;-76
2021/12/10 00:02:34;;;;;;;36.55;27.25;;;;;;;;;;5013817;28;20040;-77
2021/12/10 00:05:00;;;;;;;43.95;31.13;;;;;;;;;;5013650;28;20557;-78
2021/12/10 00:07:27;;;;;;;25.08;20.65;;;;;;;;;;5013651;28;20072;-77
2021/12/10 00:09:59;;;;;;;33.90;27.08;;;;;;;;;;5013798;28;20034;-79
2021/12/10 00:12:27;;;;;;;23.85;16.05;;;;;;;;;;5013942;28;20026;-76
2021/12/10 00:14:53;;;;;;;20.00;14.43;;;;;;;;;;5013398;28;20073;-78
2021/12/10 00:17:21;;;;;;;21.67;16.65;;;;;;;;;;5013508;28;20038;-77
2021/12/10 00:19:50;;;;;;;24.48;16.55;;;;;;;;;;5013652;28;20022;-76
2021/12/10 00:22:18;;;;;;;24.05;16.92;;;;;;;;;;5013438;28;20034;-77
2021/12/10 00:24:46;;;;;;;22.75;16.75;;;;;;;;;;5013523;28;20426;-77
2021/12/10 00:27:13;;;;;;;25.70;19.13;;;;;;;;;;5013525;28;20034;-77
2021/12/10 00:29:42;;;;;;;27.05;21.58;;;;;;;;;;5013370;28;20032;-78
2021/12/10 00:32:17;;;;;;;27.90;20.45;;;;;;;;;;5013164;28;20045;-77
2021/12/10 00:34:46;;;;;;;29.40;21.92;;;;;;;;;;5013311;28;20026;-78
2021/12/10 00:37:13;;;;;;;30.23;24.27;;;;;;;;;;5012166;28;20116;-77
2021/12/10 00:39:43;;;;;;;38.30;27.17;;;;;;;;;;5013250;28;20033;-78
2021/12/10 00:42:12;;;;;;;33.47;25.02;;;;;;;;;;5013344;28;20030;-77
2021/12/10 00:44:39;;;;;;;31.08;22.33;;;;;;;;;;5013073;28;20112;-78
2021/12/10 00:47:05;;;;;;;35.63;27.92;;;;;;;;;;5013216;28;20087;-77
2021/12/10 00:49:32;;;;;;;44.88;32.30;;;;;;;;;;5013235;28;20029;-77
2021/12/10 00:51:58;;;;;;;42.85;31.75;;;;;;;;;;5013755;28;20106;-78
2021/12/10 00:54:24;;;;;;;39.75;28.92;;;;;;;;;;5013141;28;20034;-77
2021/12/10 00:56:51;;;;;;;37.28;27.02;;;;;;;;;;5013229;28;20080;-79
2021/12/10 00:59:19;;;;;;;36.15;26.90;;;;;;;;;;5013062;28;20481;-78
2021/12/10 01:01:45;;;;;;;36.55;28.33;;;;;;;;;;5013453;28;20030;-78
2021/12/10 01:04:17;;;;;;;30.58;25.85;;;;;;;;;;5013171;28;20037;-77
2021/12/10 01:06:45;;;;;;;31.00;23.98;;;;;;;;;;4995548;28;20041;-79
2021/12/10 01:09:27;;;;;;;33.45;25.55;;;;;;;;;;5013281;28;20114;-78
2021/12/10 01:11:55;;;;;;;32.85;25.42;;;;;;;;;;5013176;28;20064;-79
2021/12/10 01:14:33;;;;;;;39.53;30.38;;;;;;;;;;5012997;28;20113;-77
2021/12/10 01:25:26;;;;;;;;;;;;;;;;;;5014032;28;20037;-78
2021/12/10 01:27:53;;;;;;;30.48;23.98;;;;;;;;;;5016457;28;19906;-78
2021/12/10 01:30:19;;;;;;;36.55;26.88;;;;;;;;;;5016323;28;20047;-77
2021/12/10 01:32:47;;;;;;;35.33;27.17;;;;;;;;;;5016410;28;20037;-79
2021/12/10 01:35:16;;;;;;;33.25;24.83;;;;;;;;;;5016281;28;20092;-78
2021/12/10 01:37:42;;;;;;;36.85;28.25;;;;;;;;;;5016320;28;20042;-78
2021/12/10 01:40:09;;;;;;;36.53;27.48;;;;;;;;;;4998553;28;20088;-78
2021/12/10 01:42:46;;;;;;;53.67;38.55;;;;;;;;;;5016255;28;20026;-78
2021/12/10 01:45:19;;;;;;;86.65;57.03;;;;;;;;;;5015948;28;20037;-77
2021/12/10 01:47:46;;;;;;;45.83;35.78;;;;;;;;;;5016071;28;20025;-78
2021/12/10 01:50:12;;;;;;;47.58;34.72;;;;;;;;;;5016110;28;20025;-78
2021/12/10 01:52:39;;;;;;;52.35;39.60;;;;;;;;;;5015992;28;20030;-75
2021/12/10 01:55:06;;;;;;;43.67;32.58;;;;;;;;;;5016079;28;20033;-77
2021/12/10 01:57:34;;;;;;;38.97;25.85;;;;;;;;;;5015926;28;20034;-78
2021/12/10 02:00:00;;;;;;;32.03;23.55;;;;;;;;;;5016034;28;20100;-78
2021/12/10 02:02:29;;;;;;;29.90;23.23;;;;;;;;;;5016040;28;20030;-77
2021/12/10 02:04:55;;;;;;;29.88;22.83;;;;;;;;;;5016265;28;20448;-77
2021/12/10 02:07:24;;;;;;;29.38;23.95;;;;;;;;;;4998281;28;20365;-76
2021/12/10 02:09:50;;;;;;;34.20;25.73;;;;;;;;;;5015967;28;20080;-77
2021/12/10 02:12:18;;;;;;;30.63;24.50;;;;;;;;;;5015638;28;20033;-76
2021/12/10 02:14:45;;;;;;;36.17;26.15;;;;;;;;;;5015659;28;20042;-76
2021/12/10 02:17:11;;;;;;;42.63;30.13;;;;;;;;;;5015588;28;20045;-75
2021/12/10 02:19:39;;;;;;;37.47;26.95;;;;;;;;;;4997935;28;20032;-78
2021/12/10 02:22:05;;;;;;;34.50;24.52;;;;;;;;;;5015489;28;20469;-78
2021/12/10 02:24:32;;;;;;;29.23;23.52;;;;;;;;;;5015495;28;20029;-77
2021/12/10 02:27:00;;;;;;;28.77;21.80;;;;;;;;;;5015314;28;20477;-77
2021/12/10 02:29:27;;;;;;;28.73;22.42;;;;;;;;;;5015382;28;20381;-74
2021/12/10 02:31:54;;;;;;;31.48;23.58;;;;;;;;;;5015334;28;20026;-78
2021/12/10 02:34:20;;;;;;;31.77;23.50;;;;;;;;;;5015171;28;20105;-77
2021/12/10 02:36:46;;;;;;;30.02;22.98;;;;;;;;;;5015018;28;20037;-75
2021/12/10 02:39:15;;;;;;;30.80;23.35;;;;;;;;;;5014974;28;20026;-75
2021/12/10 02:41:41;;;;;;;25.63;20.65;;;;;;;;;;5015311;28;20026;-78
2021/12/10 02:44:09;;;;;;;44.25;24.58;;;;;;;;;;5014913;28;20100;-75
2021/12/10 02:46:36;;;;;;;34.33;23.80;;;;;;;;;;5015110;28;20061;-78
2021/12/10 02:49:03;;;;;;;50.10;27.85;;;;;;;;;;5014886;28;20129;-76
2021/12/10 02:51:29;;;;;;;34.22;24.20;;;;;;;;;;4997381;28;20030;-76
2021/12/10 02:53:57;;;;;;;30.52;23.63;;;;;;;;;;5014857;28;20029;-74
2021/12/10 02:56:24;;;;;;;28.20;23.63;;;;;;;;;;5014699;28;20579;-74
2021/12/10 02:58:53;;;;;;;32.13;22.85;;;;;;;;;;5014781;28;20026;-76
2021/12/10 03:01:26;;;;;;;32.30;23.58;;;;;;;;;;5014767;28;20576;-75
2021/12/10 03:03:52;;;;;;;32.90;24.25;;;;;;;;;;5014680;28;20037;-77
2021/12/10 03:06:19;;;;;;;33.75;24.65;;;;;;;;;;4997036;28;20026;-76
2021/12/10 03:08:47;;;;;;;32.92;24.73;;;;;;;;;;5014676;28;20381;-76
2021/12/10 03:11:14;;;;;;;36.33;26.13;;;;;;;;;;5014576;28;20084;-77
2021/12/10 03:13:41;;;;;;;42.28;28.42;;;;;;;;;;5014648;28;20041;-78
2021/12/10 03:16:07;;;;;;;34.47;24.55;;;;;;;;;;5014276;28;20036;-75
2021/12/10 03:18:34;;;;;;;31.80;23.45;;;;;;;;;;5014512;28;20512;-77
2021/12/10 03:21:01;;;;;;;45.63;28.52;;;;;;;;;;5014322;28;20538;-75
2021/12/10 03:23:27;;;;;;;49.28;29.15;;;;;;;;;;5014626;28;20072;-76
2021/12/10 03:25:53;;;;;;;39.75;26.20;;;;;;;;;;5014371;28;20049;-75
2021/12/10 03:28:19;;;;;;;34.05;25.30;;;;;;;;;;5014393;28;20030;-75
2021/12/10 03:30:48;;;;;;;28.25;22.58;;;;;;;;;;5014175;28;20026;-76
2021/12/10 03:33:14;;;;;;;26.58;19.88;;;;;;;;;;5014488;28;20465;-77
2021/12/10 03:35:42;;;;;;;31.40;23.23;;;;;;;;;;5014047;28;20377;-76
2021/12/10 03:38:10;;;;;;;38.88;26.75;;;;;;;;;;5014514;28;20096;-78
2021/12/10 03:40:36;;;;;;;34.28;24.75;;;;;;;;;;5014113;28;20034;-76
2021/12/10 03:43:03;;;;;;;39.78;30.48;;;;;;;;;;5013825;28;20444;-75
2021/12/10 03:45:32;;;;;;;39.42;31.42;;;;;;;;;;5014089;28;20113;-75
2021/12/10 03:48:00;;;;;;;44.97;35.47;;;;;;;;;;5013381;28;20084;-76
2021/12/10 03:50:28;;;;;;;42.22;31.42;;;;;;;;;;5014117;28;20026;-75
2021/12/10 03:52:54;;;;;;;38.17;28.73;;;;;;;;;;5013990;28;20026;-78
2021/12/10 03:55:22;;;;;;;37.63;27.80;;;;;;;;;;5014007;28;20065;-76
2021/12/10 03:57:49;;;;;;;33.30;27.42;;;;;;;;;;5013816;28;20033;-75
2021/12/10 04:00:16;;;;;;;43.63;33.33;;;;;;;;;;5014088;28;20113;-78
2021/12/10 04:02:42;;;;;;;42.92;35.22;;;;;;;;;;5013849;28;20109;-75
2021/12/10 04:05:08;;;;;;;41.17;31.60;;;;;;;;;;5013645;28;20502;-76
2021/12/10 04:07:35;;;;;;;40.10;31.10;;;;;;;;;;5013777;28;20030;-77
2021/12/10 04:10:01;;;;;;;32.80;26.95;;;;;;;;;;5013590;28;20029;-75
2021/12/10 04:12:27;;;;;;;49.88;37.25;;;;;;;;;;5013640;28;20472;-76
2021/12/10 04:14:53;;;;;;;39.67;30.73;;;;;;;;;;5013624;28;20030;-75
2021/12/10 04:17:21;;;;;;;37.50;29.73;;;;;;;;;;4995802;28;20044;-76
2021/12/10 04:19:49;;;;;;;34.88;27.00;;;;;;;;;;5013717;28;20448;-76
2021/12/10 04:22:16;;;;;;;35.13;26.92;;;;;;;;;;5013684;28;20034;-75
2021/12/10 04:24:43;;;;;;;33.97;25.50;;;;;;;;;;5013636;28;20046;-76
2021/12/10 04:27:11;;;;;;;75.80;62.30;;;;;;;;;;5013563;28;20388;-76
2021/12/10 04:29:38;;;;;;;70.75;56.90;;;;;;;;;;5013561;28;20080;-78
2021/12/10 04:32:04;;;;;;;71.25;53.78;;;;;;;;;;5013471;28;20105;-77
2021/12/10 04:34:31;;;;;;;54.83;41.15;;;;;;;;;;5013475;28;20105;-74
2021/12/10 04:36:58;;;;;;;46.72;38.17;;;;;;;;;;5013273;28;20038;-75
2021/12/10 04:39:24;;;;;;;43.58;32.75;;;;;;;;;;5013269;28;20033;-78
2021/12/10 04:41:51;;;;;;;39.67;30.00;;;;;;;;;;5013292;28;20030;-76
2021/12/10 04:44:18;;;;;;;31.50;23.48;;;;;;;;;;5013086;28;20464;-75
2021/12/10 04:46:44;;;;;;;34.42;26.35;;;;;;;;;;5013190;28;20358;-77
2021/12/10 04:49:13;;;;;;;42.78;33.17;;;;;;;;;;5013249;28;20160;-80
2021/12/10 04:51:41;;;;;;;40.67;31.45;;;;;;;;;;5013243;28;20104;-78
2021/12/10 04:54:08;;;;;;;49.17;37.85;;;;;;;;;;5013427;28;20026;-80
2021/12/10 04:56:34;;;;;;;134.90;90.68;;;;;;;;;;5012923;28;20030;-78
2021/12/10 04:59:01;;;;;;;61.20;43.30;;;;;;;;;;5013477;28;20477;-76
2021/12/10 05:01:28;;;;;;;155.23;108.30;;;;;;;;;;5015354;28;20373;-76
2021/12/10 05:03:54;;;;;;;52.80;41.13;;;;;;;;;;5017266;28;20062;-76
2021/12/10 05:06:21;;;;;;;52.90;38.80;;;;;;;;;;5017286;28;20030;-77
2021/12/10 05:08:47;;;;;;;52.47;39.17;;;;;;;;;;5016902;28;20026;-79
2021/12/10 05:11:14;;;;;;;46.67;36.92;;;;;;;;;;5016943;28;20104;-77
2021/12/10 05:13:42;;;;;;;56.25;42.25;;;;;;;;;;4999394;28;20120;-78
2021/12/10 05:16:09;;;;;;;49.03;37.67;;;;;;;;;;5016902;28;20042;-78
2021/12/10 05:18:38;;;;;;;104.10;57.70;;;;;;;;;;5016870;28;20030;-78
2021/12/10 05:21:08;;;;;;;107.32;57.38;;;;;;;;;;5016681;28;20037;-78
2021/12/10 05:23:34;;;;;;;91.70;56.15;;;;;;;;;;5016762;28;20030;-79
2021/12/10 05:26:00;;;;;;;50.72;37.83;;;;;;;;;;5016689;28;20022;-76
2021/12/10 05:28:26;;;;;;;48.03;36.33;;;;;;;;;;5016569;28;20121;-78
2021/12/10 05:30:55;;;;;;;81.35;54.78;;;;;;;;;;5016427;28;20026;-78
2021/12/10 05:33:22;;;;;;;120.35;68.07;;;;;;;;;;4998832;28;20033;-77
2021/12/10 05:35:49;;;;;;;120.40;71.07;;;;;;;;;;5016275;28;20025;-76
2021/12/10 05:38:17;;;;;;;126.28;72.45;;;;;;;;;;5016321;28;20109;-76
2021/12/10 05:40:44;;;;;;;163.82;58.95;;;;;;;;;;5016159;28;20026;-75
2021/12/10 05:43:10;;;;;;;306.77;48.65;;;;;;;;;;5016109;28;20048;-77
2021/12/10 05:45:37;;;;;;;82.30;26.35;;;;;;;;;;5016348;28;20040;-77
2021/12/10 05:48:03;;;;;;;97.70;22.88;;;;;;;;;;5016398;28;20034;-78
2021/12/10 05:50:30;;;;;;;90.07;19.77;;;;;;;;;;5016250;28;20037;-76
2021/12/10 05:52:56;;;;;;;44.45;15.65;;;;;;;;;;5015952;28;20033;-78
2021/12/10 05:55:23;;;;;;;56.42;14.90;;;;;;;;;;5016362;28;20030;-78
2021/12/10 05:57:49;;;;;;;49.50;14.60;;;;;;;;;;5016210;28;20408;-78
2021/12/10 06:00:21;;;;;;;33.45;12.52;;;;;;;;;;5016021;28;20033;-77
2021/12/10 06:02:48;;;;;;;32.78;18.85;;;;;;;;;;5016051;28;20029;-75
2021/12/10 06:05:14;;;;;;;29.85;24.05;;;;;;;;;;5015880;28;20128;-77
2021/12/10 06:07:40;;;;;;;27.20;21.70;;;;;;;;;;5015694;28;20481;-76
2021/12/10 06:10:08;;;;;;;32.08;24.02;;;;;;;;;;5015769;28;20033;-77
2021/12/10 06:12:34;;;;;;;40.78;28.58;;;;;;;;;;4997656;28;20026;-79
2021/12/10 06:15:00;;;;;;;131.07;38.22;;;;;;;;;;5015741;28;20034;-75
2021/12/10 06:17:27;;;;;;;94.75;34.05;;;;;;;;;;5014736;28;20034;-77
2021/12/10 06:19:53;;;;;;;207.45;51.28;;;;;;;;;;4997562;28;20030;-77
2021/12/10 06:22:19;;;;;;;138.00;44.70;;;;;;;;;;5017584;28;20053;-79
2021/12/10 06:24:45;;;;;;;162.23;62.42;;;;;;;;;;5019937;28;20022;-75
2021/12/10 06:27:11;;;;;;;148.45;39.03;;;;;;;;;;5020490;28;20063;-75
2021/12/10 06:29:41;;;;;;;48.05;25.83;;;;;;;;;;5015475;28;20104;-76
2021/12/10 06:32:11;;;;;;;88.70;31.80;;;;;;;;;;5009383;28;20099;-77
2021/12/10 06:34:37;;;;;;;89.65;30.27;;;;;;;;;;5010936;28;20083;-78
2021/12/10 06:37:04;;;;;;;48.65;25.75;;;;;;;;;;5022003;28;20040;-78
2021/12/10 06:39:30;;;;;;;64.72;27.92;;;;;;;;;;5012994;28;20053;-78
2021/12/10 06:42:01;;;;;;;79.60;29.80;;;;;;;;;;5012532;28;20042;-80
2021/12/10 06:44:27;;;;;;;93.13;30.63;;;;;;;;;;5020495;28;20057;-78
2021/12/10 06:46:57;;;;;;;58.97;27.02;;;;;;;;;;5005206;28;20040;-77
2021/12/10 06:49:23;;;;;;;71.40;32.47;;;;;;;;;;5028787;28;20171;-77
2021/12/10 06:51:49;;;;;;;99.15;38.72;;;;;;;;;;5028665;28;20028;-78
2021/12/10 06:54:15;;;;;;;59.65;36.22;;;;;;;;;;5032407;28;20029;-77
2021/12/10 06:56:42;;;;;;;61.55;33.22;;;;;;;;;;5032320;28;20041;-79
2021/12/10 06:59:09;;;;;;;47.47;32.33;;;;;;;;;;5014359;28;20036;-80
2021/12/10 07:01:38;;;;;;;38.45;28.52;;;;;;;;;;5030967;28;20025;-79
2021/12/10 07:04:10;;;;;;;39.17;28.23;;;;;;;;;;5002881;28;20033;-78
2021/12/10 07:06:36;;;;;;;35.03;26.13;;;;;;;;;;5012526;28;20516;-78
2021/12/10 07:09:05;;;;;;;74.13;41.55;;;;;;;;;;5012420;28;20104;-79
2021/12/10 07:11:31;;;;;;;340.60;98.88;;;;;;;;;;5012449;28;20034;-78
2021/12/10 07:13:58;;;;;;;130.85;81.55;;;;;;;;;;5012081;28;20420;-81
2021/12/10 07:16:25;;;;;;;132.80;82.53;;;;;;;;;;5011766;28;20033;-78
2021/12/10 07:18:54;;;;;;;102.03;66.93;;;;;;;;;;5012108;28;20188;-76
2021/12/10 07:21:20;;;;;;;72.07;51.55;;;;;;;;;;5012128;28;20084;-77
2021/12/10 07:23:49;;;;;;;54.95;42.30;;;;;;;;;;5011261;28;20587;-78
2021/12/10 07:26:16;;;;;;;52.30;37.72;;;;;;;;;;5011892;28;20025;-77
2021/12/10 07:28:42;;;;;;;58.55;43.85;;;;;;;;;;5011318;28;20092;-78
2021/12/10 07:31:09;;;;;;;63.45;44.95;;;;;;;;;;5012074;28;20026;-69
2021/12/10 07:33:35;;;;;;;151.63;101.28;;;;;;;;;;5010308;28;20029;-77
2021/12/10 07:36:02;;;;;;;220.98;133.82;;;;;;;;;;5011713;28;20100;-77
2021/12/10 07:38:31;;;;;;;178.57;118.65;;;;;;;;;;5010394;28;20040;-80
2021/12/10 07:40:57;;;;;;;130.60;89.47;;;;;;;;;;5011680;28;20447;-78
2021/12/10 07:43:23;;;;;;;218.32;107.55;;;;;;;;;;5011013;28;20096;-78
2021/12/10 07:45:51;;;;;;;125.00;87.68;;;;;;;;;;5011850;28;20030;-76
2021/12/10 07:48:19;;;;;;;94.95;63.13;;;;;;;;;;5010168;28;20044;-77
2021/12/10 07:50:52;;;;;;;79.32;55.85;;;;;;;;;;5011556;28;20504;-77
2021/12/10 07:53:19;;;;;;;69.32;50.45;;;;;;;;;;5011737;28;20472;-79
2021/12/10 07:55:46;;;;;;;69.05;53.38;;;;;;;;;;5011463;28;20034;-78
2021/12/10 07:58:13;;;;;;;64.03;52.88;;;;;;;;;;5011508;28;20033;-77
2021/12/10 08:00:40;;;;;;;80.85;60.95;;;;;;;;;;5011667;28;20034;-77
2021/12/10 08:03:07;;;;;;;102.30;83.10;;;;;;;;;;5009980;28;20173;-76
2021/12/10 08:05:33;;;;;;;88.60;70.25;;;;;;;;;;5011248;28;20189;-79
2021/12/10 08:08:00;;;;;;;85.72;71.07;;;;;;;;;;5009690;28;20038;-76
2021/12/10 08:10:27;;;;;;;68.30;55.75;;;;;;;;;;5011165;28;20037;-77
2021/12/10 08:12:54;;;;;;;68.43;54.60;;;;;;;;;;5011042;28;20036;-77
2021/12/10 08:15:20;;;;;;;77.13;61.47;;;;;;;;;;5012082;28;20026;-81
2021/12/10 08:17:47;;;;;;;94.38;73.65;;;;;;;;;;5012311;28;20038;-78
2021/12/10 08:20:18;;;;;;;103.18;79.50;;;;;;;;;;5013151;28;20030;-79
2021/12/10 08:22:44;;;;;;;75.53;55.67;;;;;;;;;;5011172;28;20021;-79
2021/12/10 08:25:11;;;;;;;60.78;44.20;;;;;;;;;;5011154;28;20060;-78
2021/12/10 08:27:38;;;;;;;40.92;30.10;;;;;;;;;;5010519;28;20062;-77
2021/12/10 08:30:09;;;;;;;25.90;21.15;;;;;;;;;;5011422;28;20049;-77
2021/12/10 08:32:35;;;;;;;17.58;14.77;;;;;;;;;;5010718;28;20022;-76
2021/12/10 08:35:03;;;;;;;15.40;12.07;;;;;;;;;;5013193;28;20112;-78
2021/12/10 08:37:29;;;;;;;12.85;9.90;;;;;;;;;;5014554;28;20524;-77
2021/12/10 08:39:55;;;;;;;13.13;10.85;;;;;;;;;;5014586;28;20116;-78
2021/12/10 08:42:21;;;;;;;12.93;10.82;;;;;;;;;;5015075;28;20468;-77
2021/12/10 08:44:48;;;;;;;15.10;11.70;;;;;;;;;;5014467;28;20054;-76
2021/12/10 08:47:15;;;;;;;15.30;11.18;;;;;;;;;;5015364;28;20030;-78
2021/12/10 08:49:41;;;;;;;15.32;11.82;;;;;;;;;;5014959;28;20030;-77
2021/12/10 08:52:08;;;;;;;11.50;9.20;;;;;;;;;;5015080;28;20109;-75
2021/12/10 08:54:35;;;;;;;12.02;9.52;;;;;;;;;;5014611;28;20064;-77
2021/12/10 08:57:01;;;;;;;13.13;11.10;;;;;;;;;;5014973;28;20492;-76
2021/12/10 08:59:28;;;;;;;12.85;9.85;;;;;;;;;;5013319;28;20030;-77
2021/12/10 09:01:57;;;;;;;14.48;11.07;;;;;;;;;;5022653;28;20099;-79
2021/12/10 09:04:23;;;;;;;9.18;7.22;;;;;;;;;;5024010;28;20034;-79
2021/12/10 09:06:51;;;;;;;10.65;7.97;;;;;;;;;;5024330;28;20075;-75
2021/12/10 09:09:19;;;;;;;9.45;6.97;;;;;;;;;;5019955;28;20022;-76
2021/12/10 09:11:47;;;;;;;9.05;7.82;;;;;;;;;;5021341;28;20033;-76
2021/12/10 09:14:15;;;;;;;9.75;8.52;;;;;;;;;;5023440;28;20025;-76
2021/12/10 09:16:41;;;;;;;21.25;15.48;;;;;;;;;;5032616;28;20041;-75
2021/12/10 09:19:11;;;;;;;10.80;8.57;;;;;;;;;;5034262;28;20104;-75
2021/12/10 09:21:37;;;;;;;15.10;9.45;;;;;;;;;;5033698;28;20051;-76
2021/12/10 09:24:06;;;;;;;14.60;9.63;;;;;;;;;;5027710;28;20034;-75
2021/12/10 09:26:37;;;;;;;10.48;7.95;;;;;;;;;;5014260;28;20187;-78
2021/12/10 09:29:05;;;;;;;9.77;7.32;;;;;;;;;;5013961;28;20108;-77
2021/12/10 09:31:32;;;;;;;9.40;7.88;;;;;;;;;;5014077;28;20552;-77
2021/12/10 09:33:59;;;;;;;10.30;7.10;;;;;;;;;;5013963;28;20060;-76
2021/12/10 09:36:26;;;;;;;10.80;7.35;;;;;;;;;;5014075;28;20056;-78
2021/12/10 09:38:53;;;;;;;7.53;6.60;;;;;;;;;;5013769;28;20052;-78
2021/12/10 09:41:19;;;;;;;9.77;6.75;;;;;;;;;;5012601;28;20030;-76
2021/12/10 09:43:45;;;;;;;9.88;7.32;;;;;;;;;;5013612;28;20077;-76
2021/12/10 09:46:12;;;;;;;10.75;6.78;;;;;;;;;;5013013;28;20030;-76
2021/12/10 09:48:40;;;;;;;8.75;7.35;;;;;;;;;;5022271;28;20109;-77
2021/12/10 09:51:23;;;;;;;9.50;7.85;;;;;;;;;;5023012;28;20159;-76
2021/12/10 09:53:52;;;;;;;7.93;7.13;;;;;;;;;;5022701;28;20028;-79
2021/12/10 09:56:18;;;;;;;9.32;7.80;;;;;;;;;;5022154;28;20053;-78
2021/12/10 09:58:44;;;;;;;8.88;7.88;;;;;;;;;;5022814;28;20066;-79
2021/12/10 10:01:17;;;;;;;9.82;7.95;;;;;;;;;;5023721;28;20127;-78
2021/12/10 10:03:45;;;;;;;14.70;9.63;;;;;;;;;;5020657;28;20052;-79
2021/12/10 10:06:12;;;;;;;15.35;10.25;;;;;;;;;;5022129;28;20057;-79
2021/12/10 10:08:39;;;;;;;10.10;7.85;;;;;;;;;;5019453;28;20018;-81
2021/12/10 10:11:10;;;;;;;9.25;6.50;;;;;;;;;;5022571;28;20446;-80
2021/12/10 10:13:38;;;;;;;10.95;7.65;;;;;;;;;;5023250;28;20456;-79
2021/12/10 10:16:05;;;;;;;14.35;12.23;;;;;;;;;;5022323;28;20109;-78
2021/12/10 10:18:33;;;;;;;9.00;8.10;;;;;;;;;;5021997;28;20136;-78
2021/12/10 10:21:01;;;;;;;8.85;6.85;;;;;;;;;;5019063;28;20089;-79
2021/12/10 10:23:28;;;;;;;7.03;6.32;;;;;;;;;;5022014;28;20476;-79
2021/12/10 10:25:56;;;;;;;8.40;6.10;;;;;;;;;;5023029;28;20025;-82
2021/12/10 10:28:22;;;;;;;7.88;5.95;;;;;;;;;;5021551;28;20833;-77
2021/12/10 10:30:58;;;;;;;9.07;7.90;;;;;;;;;;5022036;28;20029;-80
2021/12/10 10:33:25;;;;;;;8.27;7.28;;;;;;;;;;5022386;28;20452;-79
2021/12/10 10:35:53;;;;;;;9.65;7.40;;;;;;;;;;5021626;28;20514;-82
2021/12/10 10:38:20;;;;;;;9.98;8.90;;;;;;;;;;5018635;28;20130;-80
2021/12/10 10:40:54;;;;;;;9.43;7.10;;;;;;;;;;5020627;28;20616;-81
2021/12/10 10:43:21;;;;;;;9.55;7.60;;;;;;;;;;5020916;28;20088;-81
2021/12/10 10:45:48;;;;;;;8.05;5.85;;;;;;;;;;5021981;28;20018;-79
2021/12/10 10:48:16;;;;;;;8.85;6.13;;;;;;;;;;5023099;28;20029;-79
2021/12/10 10:50:48;;;;;;;13.40;9.18;;;;;;;;;;5021515;28;20101;-80
2021/12/10 10:53:18;;;;;;;12.15;8.82;;;;;;;;;;5020852;28;20149;-82
2021/12/10 10:55:56;;;;;;;9.25;7.47;;;;;;;;;;5025520;28;20021;-81
2021/12/10 10:58:25;;;;;;;8.43;7.13;;;;;;;;;;5030846;28;20030;-81
2021/12/10 11:01:00;;;;;;;7.30;6.07;;;;;;;;;;5033635;28;20040;-83
2021/12/10 11:03:39;;;;;;;7.72;5.93;;;;;;;;;;5032545;28;20470;-81
2021/12/10 11:06:23;;;;;;;7.20;6.43;;;;;;;;;;5031842;28;20030;-80
2021/12/10 11:08:53;;;;;;;18.23;16.42;;;;;;;;;;5032520;28;20033;-81
2021/12/10 11:11:22;;;;;;;12.50;9.30;;;;;;;;;;5023463;28;20036;-79
2021/12/10 11:14:02;;;;;;;7.82;6.53;;;;;;;;;;5011586;28;20021;-81
2021/12/10 11:16:29;;;;;;;8.27;6.00;;;;;;;;;;5020080;28;20030;-81
2021/12/10 11:18:55;;;;;;;13.38;11.98;;;;;;;;;;5012088;28;20037;-82
2021/12/10 11:21:40;;;;;;;9.48;8.00;;;;;;;;;;5012874;28;20109;-83
2021/12/10 11:24:33;;;;;;;8.82;7.80;;;;;;;;;;5012351;28;20040;-82
2021/12/10 11:27:21;;;;;;;8.68;7.60;;;;;;;;;;5020650;28;20030;-84
2021/12/10 11:29:59;;;;;;;8.10;6.80;;;;;;;;;;5018462;28;20057;-75
2021/12/10 11:32:38;;;;;;;;;;;;;;;;;;;;;
2021/12/10 11:35:10;;;;;;;13.25;11.52;;;;;;;;;;5021882;28;20037;-80
2021/12/10 11:38:08;;;;;;;6.47;4.90;;;;;;;;;;5015332;28;20065;-83
2021/12/10 11:40:49;;;;;;;5.93;5.32;;;;;;;;;;5022312;28;20033;-78
2021/12/10 11:48:45;;;;;;;4.55;3.83;;;;;;;;;;5023996;28;20080;-77
2021/12/10 11:51:11;;;;;;;4.28;3.13;;;;;;;;;;5021085;28;20037;-82
2021/12/10 11:53:45;;;;;;;6.60;4.10;;;;;;;;;;5021733;28;20064;-81
2021/12/10 11:56:30;;;;;;;8.52;4.45;;;;;;;;;;5018697;28;20714;-82
2021/12/10 11:59:14;;;;;;;5.30;3.17;;;;;;;;;;5017926;28;20508;-80
2021/12/10 12:01:54;;;;;;;5.07;3.85;;;;;;;;;;5018083;28;20037;-80
2021/12/10 12:04:22;;;;;;;5.68;3.38;;;;;;;;;;5034561;28;20029;-80
2021/12/10 12:07:09;;;;;;;5.32;3.55;;;;;;;;;;5018640;28;20045;-82
2021/12/10 12:09:39;;;;;;;3.85;2.95;;;;;;;;;;5017984;28;20049;-80
2021/12/10 12:12:14;;;;;;;4.20;3.00;;;;;;;;;;5019052;28;20495;-79
2021/12/10 12:14:50;;;;;;;7.15;4.45;;;;;;;;;;5022018;28;20017;-79
2021/12/10 12:17:30;;;;;;;6.97;5.18;;;;;;;;;;5018697;28;20052;-82
2021/12/10 12:19:59;;;;;;;13.10;10.18;;;;;;;;;;5018966;28;20501;-81
2021/12/10 12:25:10;;;;;;;;;;;;;;;;;;5016957;28;20044;-81
2021/12/10 12:27:36;;;;;;;12.98;9.27;;;;;;;;;;5012713;28;19964;-81
2021/12/10 12:30:08;;;;;;;8.02;5.20;;;;;;;;;;5013967;28;20469;-81
2021/12/10 12:32:37;;;;;;;7.97;5.13;;;;;;;;;;5020215;28;20040;-79
2021/12/10 12:35:14;;;;;;;11.07;7.38;;;;;;;;;;5022451;28;20022;-80
2021/12/10 12:37:40;;;;;;;3.10;2.60;;;;;;;;;;5012793;28;20116;-79
2021/12/10 12:40:07;;;;;;;11.52;7.43;;;;;;;;;;5016822;28;20512;-79
2021/12/10 12:42:35;;;;;;;8.00;4.95;;;;;;;;;;5012152;28;20026;-79
2021/12/10 12:45:14;;;;;;;6.93;2.47;;;;;;;;;;5011866;28;20038;-80
2021/12/10 12:47:41;;;;;;;5.80;3.50;;;;;;;;;;5012218;28;20464;-79
2021/12/10 12:50:18;;;;;;;4.88;3.47;;;;;;;;;;5020401;28;20030;-82
2021/12/10 12:52:50;;;;;;;2.90;2.22;;;;;;;;;;5015123;28;20084;-80
2021/12/10 12:55:35;;;;;;;5.30;3.20;;;;;;;;;;5027167;28;20069;-81
2021/12/10 12:58:11;;;;;;;3.60;2.17;;;;;;;;;;5021781;28;20025;-80
2021/12/10 13:00:50;;;;;;;3.40;2.05;;;;;;;;;;5005194;28;20029;-81
2021/12/10 13:03:27;;;;;;;3.10;2.05;;;;;;;;;;5012134;28;20583;-80
2021/12/10 13:05:55;;;;;;;3.95;1.75;;;;;;;;;;5016426;28;20432;-81
2021/12/10 13:08:31;;;;;;;2.45;2.05;;;;;;;;;;5024220;28;20034;-81
2021/12/10 13:11:15;;;;;;;5.50;2.55;;;;;;;;;;5024455;28;20034;-82
2021/12/10 13:13:47;;;;;;;4.35;2.83;;;;;;;;;;5003538;28;20022;-82
2021/12/10 13:16:14;;;;;;;4.78;2.38;;;;;;;;;;5012657;28;20101;-81
2021/12/10 13:18:43;;;;;;;4.90;2.63;;;;;;;;;;5010547;28;20025;-82
2021/12/10 13:21:11;;;;;;;7.20;5.70;;;;;;;;;;5013256;28;20476;-81
2021/12/10 13:23:37;;;;;;;11.68;10.10;;;;;;;;;;5015526;28;20481;-82
2021/12/10 13:26:05;;;;;;;8.98;6.47;;;;;;;;;;5026217;28;20030;-80
2021/12/10 13:28:31;;;;;;;6.43;4.70;;;;;;;;;;5027743;28;20160;-81
2021/12/10 13:31:00;;;;;;;3.40;2.47;;;;;;;;;;5022523;28;20104;-83
2021/12/10 13:33:28;;;;;;;4.75;2.80;;;;;;;;;;5023248;28;20112;-83
2021/12/10 13:35:55;;;;;;;5.18;3.75;;;;;;;;;;5020292;28;20029;-81
2021/12/10 13:38:21;;;;;;;3.35;2.97;;;;;;;;;;5025636;28;20032;-82
2021/12/10 13:40:48;;;;;;;4.20;3.10;;;;;;;;;;5019745;28;20551;-81
2021/12/10 13:43:16;;;;;;;7.53;4.05;;;;;;;;;;5020736;28;20056;-82
2021/12/10 13:45:43;;;;;;;5.03;3.53;;;;;;;;;;5022366;28;20524;-80
2021/12/10 13:48:14;;;;;;;4.35;2.80;;;;;;;;;;5038682;28;20037;-82
2021/12/10 13:50:44;;;;;;;2.92;2.35;;;;;;;;;;5023408;28;20107;-80
2021/12/10 13:53:13;;;;;;;6.97;4.53;;;;;;;;;;5018430;28;20059;-84
2021/12/10 13:55:48;;;;;;;3.78;3.38;;;;;;;;;;5018386;28;20030;-80
2021/12/10 13:58:14;;;;;;;5.03;4.22;;;;;;;;;;5022074;28;20033;-80
2021/12/10 14:01:01;;;;;;;4.45;4.03;;;;;;;;;;5013109;28;20477;-81
2021/12/10 14:03:48;;;;;;;5.40;3.80;;;;;;;;;;5014872;28;20034;-82
2021/12/10 14:06:20;;;;;;;5.68;4.18;;;;;;;;;;5010442;28;20030;-80
2021/12/10 14:09:06;;;;;;;7.03;4.65;;;;;;;;;;4996940;28;20078;-81
2021/12/10 14:11:51;;;;;;;4.38;3.00;;;;;;;;;;5014837;28;20064;-81
2021/12/10 14:14:17;;;;;;;4.47;2.88;;;;;;;;;;5014715;28;20025;-81
2021/12/10 14:16:49;;;;;;;5.78;3.70;;;;;;;;;;5029333;28;20452;-81
2021/12/10 14:19:34;;;;;;;5.30;3.35;;;;;;;;;;5029013;28;20026;-80
2021/12/10 14:22:00;;;;;;;3.47;2.45;;;;;;;;;;5034089;28;20033;-80
2021/12/10 14:24:38;;;;;;;4.63;3.45;;;;;;;;;;5023568;28;20044;-82
2021/12/10 14:27:23;;;;;;;4.70;2.88;;;;;;;;;;5021944;28;20025;-81
2021/12/10 14:30:14;;;;;;;5.50;3.45;;;;;;;;;;5014228;28;20404;-81
2021/12/10 14:32:41;;;;;;;5.30;4.70;;;;;;;;;;5032996;28;20030;-81
2021/12/10 14:35:23;;;;;;;10.00;6.57;;;;;;;;;;5022357;28;20041;-83
2021/12/10 14:38:03;;;;;;;8.02;6.07;;;;;;;;;;5024154;28;20116;-81
2021/12/10 14:40:32;;;;;;;6.75;4.15;;;;;;;;;;5016082;28;20034;-82
2021/12/10 14:43:09;;;;;;;6.85;4.40;;;;;;;;;;5033688;28;20710;-81
2021/12/10 14:45:54;;;;;;;6.18;4.60;;;;;;;;;;5034186;28;20063;-81
2021/12/10 14:48:21;;;;;;;6.03;3.78;;;;;;;;;;5033643;28;20029;-79
2021/12/10 14:51:05;;;;;;;7.18;4.90;;;;;;;;;;5016916;28;20041;-80
2021/12/10 14:53:37;;;;;;;8.13;7.22;;;;;;;;;;5013960;28;20097;-81